Terminal Aerodrome Forecast
Issued by NWS Cleveland, OH

Home | Current Version | Previous Version | Text Only | Print | Product List | Glossary Off
Versions: 1 2 3 4 5 6 7 8 9 10 11 12 13 14 15 16

000
FTUS41 KCLE 010500
TAFYNG
TAF
KYNG 010520Z 0106/0206 00000KT 6SM BR SCT005 BKN070
     FM011100 01008KT P6SM SCT070 BKN200
     FM011600 36010G15KT P6SM SCT060 BKN250
     FM012100 34006KT P6SM SKC=

USA.gov is the U.S. government's official web portal to all federal, state and local government web resources and services.